createdAt,value
2022-11-01T00:00:10.119Z,10.5
2022-11-01T00:05:10.102Z,10.5
2022-11-01T00:10:10.177Z,10.5
2022-11-01T00:15:10.137Z,10.5
2022-11-01T00:20:10.099Z,10.5
2022-11-01T00:25:10.119Z,10.5
2022-11-01T00:30:10.117Z,10.5
2022-11-01T00:35:10.117Z,10.6
2022-11-01T00:40:10.116Z,10.6
2022-11-01T00:45:10.115Z,10.6
2022-11-01T00:50:10.103Z,10.6
2022-11-01T00:55:10.126Z,10.7
2022-11-01T01:00:10.116Z,10.8
2022-11-01T01:05:10.114Z,10.8
2022-11-01T01:10:10.110Z,10.9
2022-11-01T01:15:10.106Z,10.9
2022-11-01T01:20:10.111Z,10.9
2022-11-01T01:25:10.100Z,10.9
2022-11-01T01:30:10.103Z,10.9
2022-11-01T01:35:10.102Z,10.8
2022-11-01T01:40:10.115Z,10.8
2022-11-01T01:45:10.097Z,10.8
2022-11-01T01:50:10.123Z,10.8
2022-11-01T01:55:10.116Z,10.8
2022-11-01T02:00:10.117Z,10.6
2022-11-01T02:05:10.100Z,10.6
2022-11-01T02:10:10.110Z,10.5
2022-11-01T02:15:10.101Z,10.4
2022-11-01T02:20:10.117Z,10.4
2022-11-01T02:25:10.114Z,10.3
2022-11-01T02:30:10.135Z,10.2
2022-11-01T02:35:10.114Z,10.1
2022-11-01T02:40:10.108Z,10.1
2022-11-01T02:45:10.108Z,10.1
2022-11-01T02:50:10.111Z,10.1
2022-11-01T02:55:10.104Z,10.2
2022-11-01T03:00:10.106Z,10.3
2022-11-01T03:05:10.093Z,10.3
2022-11-01T03:10:10.112Z,10.3
2022-11-01T03:15:10.102Z,10.3
2022-11-01T03:20:10.106Z,10.4
2022-11-01T03:25:10.101Z,10.5
2022-11-01T03:30:10.108Z,10.5
2022-11-01T03:35:10.110Z,10.5
2022-11-01T03:40:10.096Z,10.6
2022-11-01T03:45:10.149Z,10.6
2022-11-01T03:50:10.102Z,10.7
2022-11-01T03:55:10.112Z,10.7
2022-11-01T04:00:10.107Z,10.8
2022-11-01T04:05:10.097Z,10.8
2022-11-01T04:10:10.106Z,10.9
2022-11-01T04:15:10.107Z,11
2022-11-01T04:20:10.115Z,10.9
2022-11-01T04:25:10.110Z,10.9
2022-11-01T04:30:10.109Z,11
2022-11-01T04:35:10.110Z,11
2022-11-01T04:40:10.119Z,10.9
2022-11-01T04:45:10.101Z,10.9
2022-11-01T04:50:10.108Z,11
2022-11-01T04:55:10.100Z,11
2022-11-01T05:00:10.113Z,11.1
2022-11-01T05:05:10.098Z,11
2022-11-01T05:10:10.119Z,10.9
2022-11-01T05:15:10.109Z,10.8
2022-11-01T05:20:10.109Z,10.7
2022-11-01T05:25:10.098Z,10.7
2022-11-01T05:30:10.111Z,10.7
2022-11-01T05:35:10.107Z,10.7
2022-11-01T05:40:10.107Z,10.8
2022-11-01T05:45:10.097Z,10.8
2022-11-01T05:50:10.110Z,10.9
2022-11-01T05:55:10.103Z,10.9
2022-11-01T06:00:10.117Z,10.9
2022-11-01T06:05:10.120Z,10.9
2022-11-01T06:10:10.114Z,11
2022-11-01T06:15:10.093Z,11
2022-11-01T06:20:10.105Z,11.3
2022-11-01T06:25:10.099Z,11.3
2022-11-01T06:30:10.103Z,11.4
2022-11-01T06:35:10.104Z,11.4
2022-11-01T06:40:10.114Z,11.3
2022-11-01T06:45:10.108Z,11.4
2022-11-01T06:50:10.105Z,11.4
2022-11-01T06:55:10.097Z,11.9
2022-11-01T07:00:10.107Z,11.9
2022-11-01T07:05:10.111Z,12.1
2022-11-01T07:10:10.099Z,12.1
2022-11-01T07:15:10.110Z,12
2022-11-01T07:20:10.116Z,12
2022-11-01T07:25:10.122Z,12
2022-11-01T07:30:10.101Z,12.2
2022-11-01T07:35:10.120Z,12.3
2022-11-01T07:40:10.113Z,12.4
2022-11-01T07:45:12.918Z,12.6
2022-11-01T07:50:10.096Z,12.6
2022-11-01T07:55:10.100Z,12.8
2022-11-01T08:00:10.102Z,13
2022-11-01T08:05:10.101Z,13.1
2022-11-01T08:10:10.099Z,13.1
2022-11-01T08:15:10.102Z,13.2
2022-11-01T08:20:10.104Z,13.2
2022-11-01T08:25:10.102Z,13.3
2022-11-01T08:30:10.108Z,13.4
2022-11-01T08:35:10.097Z,13.4
2022-11-01T08:40:10.113Z,13.5
2022-11-01T08:45:10.102Z,13.6
2022-11-01T08:50:11.231Z,13.7
2022-11-01T08:55:10.098Z,13.8
2022-11-01T09:00:10.109Z,13.9
2022-11-01T09:05:10.113Z,14
2022-11-01T09:10:10.105Z,14.1
2022-11-01T09:15:10.100Z,14.3
2022-11-01T09:20:10.110Z,14.4
2022-11-01T09:25:10.104Z,14.6
2022-11-01T09:30:10.102Z,14.8
2022-11-01T09:35:10.105Z,14.9
2022-11-01T09:40:10.116Z,15.1
2022-11-01T09:45:10.106Z,15.2
2022-11-01T09:50:10.107Z,15.3
2022-11-01T09:55:10.100Z,15.3
2022-11-01T10:00:10.105Z,15.2
2022-11-01T10:05:11.111Z,15.2
2022-11-01T10:10:10.117Z,15.3
2022-11-01T10:15:10.097Z,15.8
2022-11-01T10:20:10.111Z,16
2022-11-01T10:25:10.102Z,16.1
2022-11-01T10:30:10.112Z,16.1
2022-11-01T10:35:10.104Z,16
2022-11-01T10:40:10.410Z,16.1
2022-11-01T10:45:10.100Z,16.1
2022-11-01T10:50:10.215Z,16.1
2022-11-01T10:55:10.109Z,16.2
2022-11-01T11:00:10.097Z,16.2
2022-11-01T11:05:10.103Z,16.3
2022-11-01T11:10:10.114Z,16.4
2022-11-01T11:15:10.094Z,16.5
2022-11-01T11:20:10.111Z,16.7
2022-11-01T11:25:10.098Z,16.9
2022-11-01T11:30:10.098Z,16.7
2022-11-01T11:35:10.098Z,16.5
2022-11-01T11:40:10.102Z,16.4
2022-11-01T11:45:10.115Z,16.3
2022-11-01T11:50:10.107Z,16.3
2022-11-01T11:55:10.100Z,16.2
2022-11-01T12:00:10.100Z,16.1
2022-11-01T12:05:10.100Z,16
2022-11-01T12:10:10.099Z,16
2022-11-01T12:15:10.106Z,15.8
2022-11-01T12:20:10.108Z,15.5
2022-11-01T12:25:10.108Z,15.3
2022-11-01T12:30:10.106Z,15.3
2022-11-01T12:35:10.103Z,15
2022-11-01T12:40:10.115Z,15
2022-11-01T12:45:10.094Z,15
2022-11-01T12:50:10.118Z,15
2022-11-01T12:55:10.112Z,15
2022-11-01T13:00:10.109Z,15.5
2022-11-01T13:05:10.113Z,15.9
2022-11-01T13:10:10.109Z,15.9
2022-11-01T13:15:10.113Z,16.1
2022-11-01T13:20:10.111Z,16
2022-11-01T13:25:10.107Z,15.9
2022-11-01T13:30:10.100Z,15.9
2022-11-01T13:35:10.095Z,15.9
2022-11-01T13:40:10.114Z,16
2022-11-01T13:45:10.099Z,16.1
2022-11-01T13:50:10.107Z,16.2
2022-11-01T13:55:10.250Z,16.2
2022-11-01T14:00:10.113Z,16.3
2022-11-01T14:05:10.104Z,16.3
2022-11-01T14:10:10.223Z,16.3
2022-11-01T14:15:10.099Z,16.3
2022-11-01T14:20:10.199Z,16.4
2022-11-01T14:25:10.155Z,16.4
2022-11-01T14:30:10.112Z,16.4
2022-11-01T14:35:10.110Z,16.4
2022-11-01T14:40:10.120Z,16.3
2022-11-01T14:45:10.104Z,16.3
2022-11-01T14:50:10.121Z,16.3
2022-11-01T14:55:10.106Z,16.3
2022-11-01T15:00:10.106Z,16.1
2022-11-01T15:05:10.110Z,16
2022-11-01T15:10:10.111Z,15.9
2022-11-01T15:15:10.108Z,15.6
2022-11-01T15:20:10.122Z,15.6
2022-11-01T15:25:10.113Z,15.5
2022-11-01T15:30:10.139Z,15.3
2022-11-01T15:35:10.111Z,15.2
2022-11-01T15:40:10.113Z,15
2022-11-01T15:45:10.094Z,14.8
2022-11-01T15:50:10.127Z,14.7
2022-11-01T15:55:10.107Z,14.7
2022-11-01T16:00:10.113Z,14.6
2022-11-01T16:05:10.099Z,14.4
2022-11-01T16:10:10.120Z,14.3
2022-11-01T16:15:10.103Z,14.2
2022-11-01T16:20:10.110Z,14.1
2022-11-01T16:25:10.141Z,13.9
2022-11-01T16:30:10.107Z,13.9
2022-11-01T16:35:10.103Z,13.8
2022-11-01T16:40:10.112Z,13.5
2022-11-01T16:45:10.095Z,13.4
2022-11-01T16:50:10.112Z,13.1
2022-11-01T16:55:10.094Z,13.1
2022-11-01T17:00:10.125Z,12.9
2022-11-01T17:05:10.112Z,13.1
2022-11-01T17:10:10.119Z,12.5
2022-11-01T17:15:10.109Z,12.5
2022-11-01T17:20:10.112Z,12.9
2022-11-01T17:25:10.094Z,12.9
2022-11-01T17:30:10.118Z,12.8
2022-11-01T17:35:10.116Z,12.7
2022-11-01T17:40:10.125Z,12.7
2022-11-01T17:45:10.108Z,12.2
2022-11-01T17:50:10.107Z,12
2022-11-01T17:55:10.098Z,12
2022-11-01T18:00:10.116Z,11.8
2022-11-01T18:05:10.111Z,11.5
2022-11-01T18:10:10.113Z,11.5
2022-11-01T18:15:10.117Z,11.2
2022-11-01T18:20:10.105Z,11.2
2022-11-01T18:25:10.102Z,11.4
2022-11-01T18:30:10.107Z,11.3
2022-11-01T18:35:10.142Z,11.2
2022-11-01T18:40:10.123Z,11.1
2022-11-01T18:45:10.105Z,11.1
2022-11-01T18:50:14.104Z,11.2
2022-11-01T18:55:10.101Z,10.9
2022-11-01T19:00:10.108Z,10.7
2022-11-01T19:05:10.098Z,10.6
2022-11-01T19:10:10.122Z,10.5
2022-11-01T19:15:10.095Z,10.5
2022-11-01T19:20:10.104Z,10.5
2022-11-01T19:25:10.101Z,10.4
2022-11-01T19:30:10.098Z,10.4
2022-11-01T19:35:10.108Z,10.5
2022-11-01T19:40:10.105Z,10.4
2022-11-01T19:45:10.096Z,10.4
2022-11-01T19:50:10.103Z,10.4
2022-11-01T19:55:10.097Z,10.6
2022-11-01T20:00:10.109Z,10.6
2022-11-01T20:05:10.109Z,10.6
2022-11-01T20:10:10.111Z,10.6
2022-11-01T20:15:10.102Z,10.6
2022-11-01T20:20:10.103Z,10.6
2022-11-01T20:25:10.091Z,10.5
2022-11-01T20:30:10.113Z,10.5
2022-11-01T20:35:10.108Z,10.5
2022-11-01T20:40:10.111Z,10.6
2022-11-01T20:45:10.096Z,10.7
2022-11-01T20:50:10.097Z,10.8
2022-11-01T20:55:10.108Z,10.8
2022-11-01T21:00:10.105Z,10.9
2022-11-01T21:05:10.118Z,10.8
2022-11-01T21:10:10.127Z,10.8
2022-11-01T21:15:10.106Z,10.6
2022-11-01T21:20:10.115Z,10.5
2022-11-01T21:25:10.101Z,10.4
2022-11-01T21:30:10.112Z,10.2
2022-11-01T21:35:10.094Z,10.1
2022-11-01T21:40:14.375Z,10.1
2022-11-01T21:45:10.106Z,10.2
2022-11-01T21:50:10.109Z,10.2
2022-11-01T21:55:10.107Z,10.2
2022-11-01T22:00:10.103Z,10.3
2022-11-01T22:05:10.118Z,10.3
2022-11-01T22:10:10.109Z,10.4
2022-11-01T22:15:10.096Z,10.3
2022-11-01T22:20:10.092Z,9.9
2022-11-01T22:25:10.110Z,9.6
2022-11-01T22:30:10.098Z,9.4
2022-11-01T22:35:10.099Z,9.4
2022-11-01T22:40:10.099Z,9.3
2022-11-01T22:45:10.099Z,9.1
2022-11-01T22:50:10.098Z,9
2022-11-01T22:55:10.118Z,8.9
2022-11-01T23:00:10.188Z,8.7
2022-11-01T23:05:10.106Z,8.5
2022-11-01T23:10:10.105Z,8.4
2022-11-01T23:15:10.097Z,8.4
2022-11-01T23:20:10.106Z,8.4
2022-11-01T23:25:10.089Z,8.4
2022-11-01T23:30:10.102Z,8.2
2022-11-01T23:35:10.107Z,8.2
2022-11-01T23:40:10.102Z,8
2022-11-01T23:45:10.099Z,8
2022-11-01T23:50:10.130Z,8
2022-11-01T23:55:10.106Z,7.9
